sensor_id;sensor_type;location;lat;lon;timestamp;temperature;humidity
20418;DHT22;10368;51.436;6.774;2023-05-29T10:36:22;19.30;67.00
20418;DHT22;10368;51.436;6.774;2023-05-29T10:38:51;18.60;94.40
20418;DHT22;10368;51.436;6.774;2023-05-29T10:43:58;18.80;93.50
20418;DHT22;10368;51.436;6.774;2023-05-29T10:49:17;19.20;91.30
20418;DHT22;10368;51.436;6.774;2023-05-29T10:51:44;19.20;91.10
20418;DHT22;10368;51.436;6.774;2023-05-29T10:54:11;19.50;91.10
20418;DHT22;10368;51.436;6.774;2023-05-29T10:56:40;19.40;90.80
20418;DHT22;10368;51.436;6.774;2023-05-29T10:59:10;19.70;89.40
20418;DHT22;10368;51.436;6.774;2023-05-29T11:01:40;19.60;89.10
20418;DHT22;10368;51.436;6.774;2023-05-29T11:06:53;19.90;90.90
20418;DHT22;10368;51.436;6.774;2023-05-29T11:09:31;20.10;90.10
20418;DHT22;10368;51.436;6.774;2023-05-29T11:12:24;20.00;89.00
20418;DHT22;10368;51.436;6.774;2023-05-29T11:15:09;20.10;86.30
20418;DHT22;10368;51.436;6.774;2023-05-29T11:20:09;19.20;88.50
20418;DHT22;10368;51.436;6.774;2023-05-29T11:23:23;20.00;90.60
20418;DHT22;10368;51.436;6.774;2023-05-29T11:25:34;20.30;89.40
20418;DHT22;10368;51.436;6.774;2023-05-29T11:28:02;20.60;87.60
20418;DHT22;10368;51.436;6.774;2023-05-29T11:30:31;20.10;86.00
20418;DHT22;10368;51.436;6.774;2023-05-29T11:33:01;20.20;86.30
20418;DHT22;10368;51.436;6.774;2023-05-29T11:35:33;20.40;83.80
20418;DHT22;10368;51.436;6.774;2023-05-29T11:38:01;20.10;82.20
20418;DHT22;10368;51.436;6.774;2023-05-29T11:40:35;20.80;81.20
20418;DHT22;10368;51.436;6.774;2023-05-29T11:43:03;21.10;79.70
20418;DHT22;10368;51.436;6.774;2023-05-29T11:45:32;20.80;80.40
20418;DHT22;10368;51.436;6.774;2023-05-29T11:48:02;20.80;80.80
20418;DHT22;10368;51.436;6.774;2023-05-29T11:50:31;20.50;82.40
20418;DHT22;10368;51.436;6.774;2023-05-29T11:52:59;20.70;80.30
20418;DHT22;10368;51.436;6.774;2023-05-29T11:55:27;20.40;79.80
20418;DHT22;10368;51.436;6.774;2023-05-29T11:57:59;20.80;81.70
20418;DHT22;10368;51.436;6.774;2023-05-29T12:00:34;21.10;79.70
20418;DHT22;10368;51.436;6.774;2023-05-29T12:03:03;21.30;78.50
20418;DHT22;10368;51.436;6.774;2023-05-29T12:05:48;21.10;81.80
20418;DHT22;10368;51.436;6.774;2023-05-29T12:08:16;20.90;78.30
20418;DHT22;10368;51.436;6.774;2023-05-29T12:10:50;20.70;81.20
20418;DHT22;10368;51.436;6.774;2023-05-29T12:13:21;21.10;80.20
20418;DHT22;10368;51.436;6.774;2023-05-29T12:15:53;21.10;78.70
20418;DHT22;10368;51.436;6.774;2023-05-29T12:18:21;21.40;77.10
20418;DHT22;10368;51.436;6.774;2023-05-29T12:20:48;21.90;75.50
20418;DHT22;10368;51.436;6.774;2023-05-29T12:23:17;21.80;75.00
20418;DHT22;10368;51.436;6.774;2023-05-29T12:25:47;22.30;74.10
20418;DHT22;10368;51.436;6.774;2023-05-29T12:28:17;21.40;76.40
20418;DHT22;10368;51.436;6.774;2023-05-29T12:30:48;21.50;77.00
20418;DHT22;10368;51.436;6.774;2023-05-29T12:33:30;21.70;73.20
20418;DHT22;10368;51.436;6.774;2023-05-29T12:36:08;20.80;76.70
20418;DHT22;10368;51.436;6.774;2023-05-29T12:38:47;21.30;79.30
20418;DHT22;10368;51.436;6.774;2023-05-29T12:41:33;21.10;77.00
20418;DHT22;10368;51.436;6.774;2023-05-29T12:44:02;20.90;77.40
20418;DHT22;10368;51.436;6.774;2023-05-29T12:46:37;21.30;76.30
20418;DHT22;10368;51.436;6.774;2023-05-29T12:51:41;20.80;76.60
20418;DHT22;10368;51.436;6.774;2023-05-29T12:54:11;21.60;79.10
20418;DHT22;10368;51.436;6.774;2023-05-29T12:56:38;21.80;77.30
20418;DHT22;10368;51.436;6.774;2023-05-29T12:59:09;21.50;79.30
20418;DHT22;10368;51.436;6.774;2023-05-29T13:01:37;21.60;76.80
20418;DHT22;10368;51.436;6.774;2023-05-29T13:04:07;22.10;74.80
20418;DHT22;10368;51.436;6.774;2023-05-29T13:06:35;21.90;71.70
20418;DHT22;10368;51.436;6.774;2023-05-29T13:09:04;21.40;74.70
20418;DHT22;10368;51.436;6.774;2023-05-29T13:11:32;21.70;75.60
20418;DHT22;10368;51.436;6.774;2023-05-29T13:13:58;21.00;73.10
20418;DHT22;10368;51.436;6.774;2023-05-29T13:16:26;21.80;71.70
20418;DHT22;10368;51.436;6.774;2023-05-29T13:18:54;21.10;75.40
20418;DHT22;10368;51.436;6.774;2023-05-29T13:21:20;21.20;74.50
20418;DHT22;10368;51.436;6.774;2023-05-29T13:23:47;21.00;77.30
20418;DHT22;10368;51.436;6.774;2023-05-29T13:26:14;21.50;79.40
20418;DHT22;10368;51.436;6.774;2023-05-29T13:28:41;21.10;75.40
20418;DHT22;10368;51.436;6.774;2023-05-29T13:31:08;21.40;73.60
20418;DHT22;10368;51.436;6.774;2023-05-29T13:33:35;21.30;73.30
20418;DHT22;10368;51.436;6.774;2023-05-29T13:36:01;21.10;73.20
20418;DHT22;10368;51.436;6.774;2023-05-29T13:38:29;21.40;77.90
20418;DHT22;10368;51.436;6.774;2023-05-29T13:40:56;21.00;74.00
20418;DHT22;10368;51.436;6.774;2023-05-29T13:43:22;20.80;73.40
20418;DHT22;10368;51.436;6.774;2023-05-29T13:46:01;20.70;73.00
20418;DHT22;10368;51.436;6.774;2023-05-29T13:48:28;21.10;72.90
20418;DHT22;10368;51.436;6.774;2023-05-29T13:50:55;21.30;71.60
20418;DHT22;10368;51.436;6.774;2023-05-29T13:53:22;21.80;70.00
20418;DHT22;10368;51.436;6.774;2023-05-29T13:55:48;21.50;70.40
20418;DHT22;10368;51.436;6.774;2023-05-29T13:58:15;21.10;70.30
20418;DHT22;10368;51.436;6.774;2023-05-29T14:00:42;21.00;73.00
20418;DHT22;10368;51.436;6.774;2023-05-29T14:03:09;20.70;73.30
20418;DHT22;10368;51.436;6.774;2023-05-29T14:05:36;21.60;69.80
20418;DHT22;10368;51.436;6.774;2023-05-29T14:08:03;21.40;71.30
20418;DHT22;10368;51.436;6.774;2023-05-29T14:10:30;21.40;71.30
20418;DHT22;10368;51.436;6.774;2023-05-29T14:12:56;21.60;69.40
20418;DHT22;10368;51.436;6.774;2023-05-29T14:15:23;21.40;70.70
20418;DHT22;10368;51.436;6.774;2023-05-29T14:17:50;21.40;70.40
20418;DHT22;10368;51.436;6.774;2023-05-29T14:20:17;21.40;70.20
20418;DHT22;10368;51.436;6.774;2023-05-29T14:22:44;21.50;69.70
20418;DHT22;10368;51.436;6.774;2023-05-29T14:25:11;20.90;70.30
20418;DHT22;10368;51.436;6.774;2023-05-29T14:27:38;21.10;71.10
20418;DHT22;10368;51.436;6.774;2023-05-29T14:30:05;21.50;71.60
20418;DHT22;10368;51.436;6.774;2023-05-29T14:32:32;21.20;71.10
20418;DHT22;10368;51.436;6.774;2023-05-29T14:34:59;21.40;73.60
20418;DHT22;10368;51.436;6.774;2023-05-29T14:37:27;21.30;69.40
20418;DHT22;10368;51.436;6.774;2023-05-29T14:39:54;21.60;69.80
20418;DHT22;10368;51.436;6.774;2023-05-29T14:42:21;21.60;72.50
20418;DHT22;10368;51.436;6.774;2023-05-29T14:44:48;21.60;68.90
20418;DHT22;10368;51.436;6.774;2023-05-29T14:47:15;22.40;67.90
20418;DHT22;10368;51.436;6.774;2023-05-29T14:49:42;22.10;70.10
20418;DHT22;10368;51.436;6.774;2023-05-29T14:52:09;21.80;66.80
20418;DHT22;10368;51.436;6.774;2023-05-29T14:54:36;21.20;67.10
20418;DHT22;10368;51.436;6.774;2023-05-29T14:57:03;20.90;67.40
20418;DHT22;10368;51.436;6.774;2023-05-29T14:59:30;21.40;67.70
20418;DHT22;10368;51.436;6.774;2023-05-29T15:01:57;21.50;67.90
20418;DHT22;10368;51.436;6.774;2023-05-29T15:04:26;21.20;67.60
20418;DHT22;10368;51.436;6.774;2023-05-29T15:06:53;21.70;66.30
20418;DHT22;10368;51.436;6.774;2023-05-29T15:09:32;21.60;64.10
20418;DHT22;10368;51.436;6.774;2023-05-29T15:11:59;21.20;65.40
20418;DHT22;10368;51.436;6.774;2023-05-29T15:14:26;21.30;64.50
20418;DHT22;10368;51.436;6.774;2023-05-29T15:16:53;21.40;65.10
20418;DHT22;10368;51.436;6.774;2023-05-29T15:19:22;22.10;66.30
20418;DHT22;10368;51.436;6.774;2023-05-29T15:21:48;22.30;62.90
20418;DHT22;10368;51.436;6.774;2023-05-29T15:24:15;22.20;60.80
20418;DHT22;10368;51.436;6.774;2023-05-29T15:26:43;22.00;62.00
20418;DHT22;10368;51.436;6.774;2023-05-29T15:29:11;21.90;62.30
20418;DHT22;10368;51.436;6.774;2023-05-29T15:31:38;21.90;61.30
20418;DHT22;10368;51.436;6.774;2023-05-29T15:34:05;22.10;62.20
20418;DHT22;10368;51.436;6.774;2023-05-29T15:36:32;22.60;64.10
20418;DHT22;10368;51.436;6.774;2023-05-29T15:38:58;22.10;58.20
20418;DHT22;10368;51.436;6.774;2023-05-29T15:41:26;22.50;58.30
20418;DHT22;10368;51.436;6.774;2023-05-29T15:43:55;22.80;59.00
20418;DHT22;10368;51.436;6.774;2023-05-29T15:46:27;22.50;58.40
20418;DHT22;10368;51.436;6.774;2023-05-29T15:48:55;22.70;58.00
20418;DHT22;10368;51.436;6.774;2023-05-29T16:52:53;22.50;56.60
20418;DHT22;10368;51.436;6.774;2023-05-29T16:55:21;23.30;48.70
20418;DHT22;10368;51.436;6.774;2023-05-29T16:57:47;23.40;49.40
20418;DHT22;10368;51.436;6.774;2023-05-29T17:00:15;23.10;47.80
20418;DHT22;10368;51.436;6.774;2023-05-29T17:02:41;23.40;49.30
20418;DHT22;10368;51.436;6.774;2023-05-29T17:05:08;22.60;49.30
20418;DHT22;10368;51.436;6.774;2023-05-29T17:07:35;22.50;47.70
20418;DHT22;10368;51.436;6.774;2023-05-29T17:10:02;22.50;48.10
20418;DHT22;10368;51.436;6.774;2023-05-29T17:12:29;23.10;49.10
20418;DHT22;10368;51.436;6.774;2023-05-29T17:14:56;22.70;48.50
20418;DHT22;10368;51.436;6.774;2023-05-29T17:17:23;22.60;48.40
20418;DHT22;10368;51.436;6.774;2023-05-29T17:19:51;23.00;48.50
20418;DHT22;10368;51.436;6.774;2023-05-29T17:22:18;22.60;49.00
20418;DHT22;10368;51.436;6.774;2023-05-29T17:24:45;22.90;49.40
20418;DHT22;10368;51.436;6.774;2023-05-29T17:27:12;23.00;49.10
20418;DHT22;10368;51.436;6.774;2023-05-29T17:29:38;22.30;48.80
20418;DHT22;10368;51.436;6.774;2023-05-29T17:32:06;22.50;49.70
20418;DHT22;10368;51.436;6.774;2023-05-29T17:34:37;22.60;49.70
20418;DHT22;10368;51.436;6.774;2023-05-29T17:37:04;22.70;50.00
20418;DHT22;10368;51.436;6.774;2023-05-29T17:39:32;22.50;49.40
20418;DHT22;10368;51.436;6.774;2023-05-29T17:41:59;22.30;49.10
20418;DHT22;10368;51.436;6.774;2023-05-29T17:44:26;22.20;49.50
20418;DHT22;10368;51.436;6.774;2023-05-29T17:46:53;21.70;50.30
20418;DHT22;10368;51.436;6.774;2023-05-29T17:49:21;21.60;50.10
20418;DHT22;10368;51.436;6.774;2023-05-29T17:51:48;22.20;50.70
20418;DHT22;10368;51.436;6.774;2023-05-29T17:54:14;21.60;50.10
20418;DHT22;10368;51.436;6.774;2023-05-29T17:56:41;21.70;50.90
20418;DHT22;10368;51.436;6.774;2023-05-29T17:59:08;22.00;50.80
20418;DHT22;10368;51.436;6.774;2023-05-29T18:01:36;21.70;51.20
20418;DHT22;10368;51.436;6.774;2023-05-29T18:04:03;21.50;51.30
20418;DHT22;10368;51.436;6.774;2023-05-29T18:06:30;21.30;51.70
20418;DHT22;10368;51.436;6.774;2023-05-29T18:08:58;20.80;52.20
20418;DHT22;10368;51.436;6.774;2023-05-29T18:11:24;21.20;52.90
20418;DHT22;10368;51.436;6.774;2023-05-29T18:13:52;21.20;52.00
20418;DHT22;10368;51.436;6.774;2023-05-29T18:16:20;20.80;52.20
20418;DHT22;10368;51.436;6.774;2023-05-29T18:18:48;20.30;53.20
20418;DHT22;10368;51.436;6.774;2023-05-29T18:21:14;20.20;53.90
20418;DHT22;10368;51.436;6.774;2023-05-29T18:23:42;20.40;53.90
20418;DHT22;10368;51.436;6.774;2023-05-29T18:26:10;20.30;53.60
20418;DHT22;10368;51.436;6.774;2023-05-29T18:28:37;20.20;54.00
20418;DHT22;10368;51.436;6.774;2023-05-29T18:31:04;20.30;54.20
20418;DHT22;10368;51.436;6.774;2023-05-29T18:33:31;20.10;55.20
20418;DHT22;10368;51.436;6.774;2023-05-29T18:35:58;19.70;54.70
20418;DHT22;10368;51.436;6.774;2023-05-29T18:38:25;20.00;55.20
20418;DHT22;10368;51.436;6.774;2023-05-29T18:40:52;19.60;55.50
20418;DHT22;10368;51.436;6.774;2023-05-29T18:43:19;19.70;55.60
20418;DHT22;10368;51.436;6.774;2023-05-29T18:45:46;19.50;55.20
20418;DHT22;10368;51.436;6.774;2023-05-29T18:48:13;19.40;54.40
20418;DHT22;10368;51.436;6.774;2023-05-29T18:50:41;19.50;54.80
20418;DHT22;10368;51.436;6.774;2023-05-29T18:53:07;19.10;55.20
20418;DHT22;10368;51.436;6.774;2023-05-29T18:55:35;19.30;54.90
20418;DHT22;10368;51.436;6.774;2023-05-29T18:58:02;19.00;54.30
20418;DHT22;10368;51.436;6.774;2023-05-29T19:00:29;19.10;55.10
20418;DHT22;10368;51.436;6.774;2023-05-29T19:02:56;19.00;54.50
20418;DHT22;10368;51.436;6.774;2023-05-29T19:05:24;19.00;54.30
20418;DHT22;10368;51.436;6.774;2023-05-29T19:07:52;19.10;54.50
20418;DHT22;10368;51.436;6.774;2023-05-29T19:10:20;19.20;54.70
20418;DHT22;10368;51.436;6.774;2023-05-29T19:12:47;19.10;55.20
20418;DHT22;10368;51.436;6.774;2023-05-29T19:15:14;18.80;54.40
20418;DHT22;10368;51.436;6.774;2023-05-29T19:17:41;18.90;54.30
20418;DHT22;10368;51.436;6.774;2023-05-29T19:20:08;18.80;54.40
20418;DHT22;10368;51.436;6.774;2023-05-29T19:22:36;18.80;54.70
20418;DHT22;10368;51.436;6.774;2023-05-29T19:25:03;18.60;55.20
20418;DHT22;10368;51.436;6.774;2023-05-29T19:27:30;18.50;55.40
20418;DHT22;10368;51.436;6.774;2023-05-29T19:29:57;18.50;55.30
20418;DHT22;10368;51.436;6.774;2023-05-29T19:32:24;18.50;54.60
20418;DHT22;10368;51.436;6.774;2023-05-29T19:34:53;18.30;55.20
20418;DHT22;10368;51.436;6.774;2023-05-29T19:37:21;18.50;55.70
20418;DHT22;10368;51.436;6.774;2023-05-29T19:39:48;18.20;56.10
20418;DHT22;10368;51.436;6.774;2023-05-29T19:42:18;18.20;57.20
20418;DHT22;10368;51.436;6.774;2023-05-29T19:44:48;18.20;57.70
20418;DHT22;10368;51.436;6.774;2023-05-29T19:47:15;18.00;57.90
20418;DHT22;10368;51.436;6.774;2023-05-29T19:49:41;17.90;58.20
20418;DHT22;10368;51.436;6.774;2023-05-29T19:52:09;17.90;58.30
20418;DHT22;10368;51.436;6.774;2023-05-29T19:54:36;17.80;58.60
20418;DHT22;10368;51.436;6.774;2023-05-29T19:57:04;17.70;58.40
20418;DHT22;10368;51.436;6.774;2023-05-29T19:59:35;17.60;58.70
20418;DHT22;10368;51.436;6.774;2023-05-29T20:02:03;17.50;58.70
20418;DHT22;10368;51.436;6.774;2023-05-29T20:04:32;17.40;58.90
20418;DHT22;10368;51.436;6.774;2023-05-29T20:07:03;17.40;59.10
20418;DHT22;10368;51.436;6.774;2023-05-29T20:09:30;17.50;59.30
20418;DHT22;10368;51.436;6.774;2023-05-29T20:11:57;17.40;59.20
20418;DHT22;10368;51.436;6.774;2023-05-29T20:14:24;17.60;59.50
20418;DHT22;10368;51.436;6.774;2023-05-29T20:16:51;17.40;58.90
20418;DHT22;10368;51.436;6.774;2023-05-29T20:19:19;17.30;58.80
20418;DHT22;10368;51.436;6.774;2023-05-29T20:21:46;17.10;59.20
20418;DHT22;10368;51.436;6.774;2023-05-29T20:24:13;17.00;59.50
20418;DHT22;10368;51.436;6.774;2023-05-29T20:26:41;16.90;58.60
20418;DHT22;10368;51.436;6.774;2023-05-29T20:29:08;17.00;58.30
20418;DHT22;10368;51.436;6.774;2023-05-29T20:31:36;16.90;58.30
20418;DHT22;10368;51.436;6.774;2023-05-29T20:34:03;16.80;58.90
20418;DHT22;10368;51.436;6.774;2023-05-29T20:36:30;16.90;58.70
20418;DHT22;10368;51.436;6.774;2023-05-29T20:39:01;16.90;58.40
20418;DHT22;10368;51.436;6.774;2023-05-29T20:41:39;16.80;58.60
20418;DHT22;10368;51.436;6.774;2023-05-29T20:44:06;16.80;58.60
20418;DHT22;10368;51.436;6.774;2023-05-29T20:46:36;16.80;58.60
20418;DHT22;10368;51.436;6.774;2023-05-29T20:49:03;16.80;58.30
20418;DHT22;10368;51.436;6.774;2023-05-29T20:51:31;16.50;59.40
20418;DHT22;10368;51.436;6.774;2023-05-29T20:54:00;16.50;59.40
20418;DHT22;10368;51.436;6.774;2023-05-29T20:56:28;16.50;59.70
20418;DHT22;10368;51.436;6.774;2023-05-29T20:58:55;16.40;60.60
20418;DHT22;10368;51.436;6.774;2023-05-29T21:01:22;16.40;62.10
20418;DHT22;10368;51.436;6.774;2023-05-29T21:03:49;16.20;62.90
20418;DHT22;10368;51.436;6.774;2023-05-29T21:06:17;16.20;64.60
20418;DHT22;10368;51.436;6.774;2023-05-29T21:08:44;16.00;65.40
20418;DHT22;10368;51.436;6.774;2023-05-29T21:11:11;16.10;65.70
20418;DHT22;10368;51.436;6.774;2023-05-29T21:13:38;16.00;66.50
20418;DHT22;10368;51.436;6.774;2023-05-29T21:16:06;16.00;66.80
20418;DHT22;10368;51.436;6.774;2023-05-29T21:18:33;15.90;68.10
20418;DHT22;10368;51.436;6.774;2023-05-29T21:21:00;15.90;68.40
20418;DHT22;10368;51.436;6.774;2023-05-29T21:23:27;15.80;68.80
20418;DHT22;10368;51.436;6.774;2023-05-29T21:25:55;15.80;69.20
20418;DHT22;10368;51.436;6.774;2023-05-29T21:28:27;16.00;68.70
20418;DHT22;10368;51.436;6.774;2023-05-29T21:30:54;15.90;69.60
20418;DHT22;10368;51.436;6.774;2023-05-29T21:33:21;15.80;69.80
20418;DHT22;10368;51.436;6.774;2023-05-29T21:35:52;15.70;70.20
20418;DHT22;10368;51.436;6.774;2023-05-29T21:38:19;15.50;71.80
20418;DHT22;10368;51.436;6.774;2023-05-29T21:40:46;15.50;71.40
20418;DHT22;10368;51.436;6.774;2023-05-29T21:43:13;15.30;72.30
20418;DHT22;10368;51.436;6.774;2023-05-29T21:45:40;15.30;72.60
20418;DHT22;10368;51.436;6.774;2023-05-29T21:48:08;15.10;72.80
20418;DHT22;10368;51.436;6.774;2023-05-29T21:50:35;15.20;72.70
20418;DHT22;10368;51.436;6.774;2023-05-29T21:53:02;15.20;72.40
20418;DHT22;10368;51.436;6.774;2023-05-29T21:55:29;14.90;72.80
20418;DHT22;10368;51.436;6.774;2023-05-29T23:56:11;13.00;87.10
20418;DHT22;10368;51.436;6.774;2023-05-29T23:58:38;12.60;89.70
